Latest Coastal Weather Observations for Cape Grim

IDT60701

Issued at 7:22 am EDT Wednesday 4 March 2015 (issued every 10 minutes, with the page automatically refreshed every 10 minutes)

About coastal observations | Map of coastal stations | Coastal observations for TAS | Marine services | Other Formats
Station Details ID: 091331 Name: CAPE GRIM Lat: -40.68 Lon: 144.69 Height: 86.0 m
Data from the previous 72 hours. | See also: Recent months at Cape Grim
Date/Time
EDT
Temp

°C
Wind Pressure Rain
since 9am
mm
Weather Cloud Vis
km
Sea
Height
m
Swell
Dir
 
Speed
knots
Gust
knots
hPa Trend Height
m
Period
s
Dir
04/07:11am 15.5 WNW 22 33 1009.9 - 0.2 - Partly cloudy - - - - -
04/07:00am 15.2 WNW 21 27 1010.0 - 0.2 - Cloudy - - - - -
04/06:30am 14.9 WNW 23 34 1010.1 - 0.2 - Partly cloudy - - - - -
04/06:23am 15.0 WNW 23 34 1010.2 - 0.2 - Partly cloudy - - - - -
04/06:00am 15.4 W 21 27 1010.2 - 0.2 - Cloudy - - - - -
04/05:30am 15.5 W 22 32 1010.5 - 0.2 - Partly cloudy - - - - -
04/05:01am 15.7 W 22 32 1010.5 - 0.2 - Partly cloudy - - - - -
04/05:00am 15.7 W 23 32 1010.4 - 0.2 - Partly cloudy - - - - -
04/04:31am 15.8 W 22 32 1010.6 - 0.2 - Partly cloudy - - - - -
04/04:30am 15.9 W 22 30 1010.6 - 0.2 - Partly cloudy - - - - -
04/04:04am 15.9 W 25 35 1010.7 - 0.2 - Cloudy - - - - -
04/04:00am 15.9 W 28 35 1010.6 - 0.2 - Partly cloudy - - - - -
04/03:30am 15.3 WNW 24 34 1011.1 - 0.2 - Cloudy - - - - -
04/03:10am 15.7 W 22 32 1011.3 - 0.2 - Cloudy - - - - -
04/03:00am 15.7 W 22 31 1011.6 - 0.2 - Mostly cloudy - - - - -
04/02:32am 15.7 W 21 31 1012.0 - 0.2 - Partly cloudy - - - - -
04/02:30am 15.6 W 22 31 1011.9 - 0.2 - Partly cloudy - - - - -
04/02:00am 15.5 W 18 26 1012.5 - 0.2 - Partly cloudy - - - - -
04/01:30am 15.5 W 17 24 1012.7 - 0.2 - Cloudy - - - - -
04/01:00am 15.5 W 20 32 1013.0 - 0.2 - Partly cloudy - - - - -
04/12:47am 15.5 W 18 28 1013.1 - 0.2 - Partly cloudy - - - - -
04/12:30am 15.2 W 17 23 1013.4 - 0.2 - Cloudy - - - - -
04/12:00am 15.2 W 18 26 1013.6 - 0.2 - Mostly cloudy - - - - -
 
Date/Time
EDT
Temp

°C
Wind Pressure Rain
since 9am
mm
Weather Cloud Vis
km
Sea
Height
m
Swell
Dir
 
Speed
knots
Gust
knots
hPa Trend Height
m
Period
s
Dir
03/11:49pm 15.1 W 18 29 1013.7 - 0.2 - Partly cloudy - - - - -
03/11:30pm 15.1 W 16 22 1013.9 - 0.2 - Partly cloudy - - - - -
03/11:00pm 15.3 W 16 22 1014.1 - 0.2 - Cloudy - - - - -
03/10:30pm 15.3 W 20 28 1014.3 - 0.2 - Partly cloudy - - - - -
03/10:00pm 15.3 W 16 24 1014.3 - 0.2 - Partly cloudy - - - - -
03/09:30pm 15.2 W 14 21 1014.4 - 0.2 - Partly cloudy - - - - -
03/09:00pm 15.2 W 15 21 1014.3 - 0.2 - Cloudy - - - - -
03/08:30pm 15.4 W 12 19 1014.3 - 0.2 - Partly cloudy - - - - -
03/08:00pm 15.5 W 18 24 1014.0 - 0.2 - Partly cloudy - - - - -
03/07:30pm 15.0 WNW 13 17 1014.1 - 0.2 - Partly cloudy - - - - -
03/07:00pm 15.4 WNW 11 15 1014.2 - 0.2 - Partly cloudy - - - - -
03/06:30pm 15.4 W 11 14 1014.3 - 0.2 - Cloudy - - - - -
03/06:00pm 15.5 W 8 13 1014.5 - 0.2 - Cloudy - - - - -
03/05:30pm 15.6 W 10 15 1014.7 - 0.2 - Partly cloudy - - - - -
03/05:00pm 15.7 W 10 15 1014.8 - 0.2 - Partly cloudy - - - - -
03/04:30pm 16.2 W 10 14 1015.0 - 0.2 - Partly cloudy - - - - -
03/04:00pm 16.6 W 10 16 1015.3 - 0.2 - Partly cloudy - - - - -
03/03:30pm 16.6 WSW 9 13 1015.4 - 0.2 - Partly cloudy - - - - -
03/03:00pm 16.6 WSW 9 15 1015.8 - 0.2 - Partly cloudy - - - - -
03/02:30pm 16.8 WSW 9 15 1015.9 - 0.2 - Cloudy - - - - -
03/02:00pm 16.8 WSW 10 16 1016.0 - 0.2 - Partly cloudy - - - - -
03/01:30pm 16.4 SW 11 18 1016.3 - 0.0 - Partly cloudy - - - - -
03/01:00pm 16.8 SW 11 16 1016.4 - 0.0 - Partly cloudy - - - - -
03/12:30pm 17.0 SW 13 16 1016.5 - 0.0 - Partly cloudy - - - - -
03/12:00pm 16.8 WSW 11 16 1016.6 - 0.0 - - - - - - -
03/11:30am 16.6 SW 10 18 1016.6 - 0.0 - Partly cloudy - - - - -
03/11:00am 16.3 SW 13 20 1016.8 - 0.0 - Partly cloudy - - - - -
03/10:30am 16.2 SW 16 20 1016.6 - 0.0 - Partly cloudy - - - - -
03/10:00am 16.0 SW 14 19 1016.4 - 0.0 - - - - - - -
03/09:30am 16.1 SW 12 18 1016.3 - 0.0 - Partly cloudy - - - - -
03/09:00am 15.2 SW 13 20 1016.1 - 0.0 - Cloudy - - - - -
03/08:30am 14.9 SW 11 17 1016.0 - 0.0 - Partly cloudy - - - - -
03/08:00am 14.9 WSW 10 19 1015.5 - 0.0 - Partly cloudy - - - - -
03/07:30am 14.4 SW 13 20 1015.3 - 0.0 - Partly cloudy - - - - -
03/07:00am 14.3 SW 16 27 1015.0 - 0.0 - Partly cloudy - - - - -
03/06:59am 14.5 SW 15 27 1015.0 - 0.0 - Partly cloudy - - - - -
03/06:30am 14.7 WSW 10 16 1014.7 - 0.0 - Partly cloudy - - - - -
03/06:00am 14.6 W 10 16 1014.5 - 0.0 - Mostly cloudy - - - - -
03/05:30am 13.8 SW 11 19 1014.5 - 0.0 - Partly cloudy - - - - -
03/05:00am 14.4 W 15 22 1014.4 - 0.0 - Partly cloudy - - - - -
03/04:30am 14.5 WSW 14 22 1014.3 - 0.0 - Partly cloudy - - - - -
03/04:00am 15.5 W 13 18 1014.2 - 0.0 - Partly cloudy - - - - -
03/03:30am 15.2 W 12 17 1014.0 - 0.0 - Partly cloudy - - - - -
03/03:00am 15.3 W 12 17 1014.1 - 0.0 - - - - - - -
03/02:30am 15.2 W 10 16 1014.5 - 0.0 - - - - - - -
03/02:00am 15.2 W 10 16 1014.7 - 0.0 - Partly cloudy - - - - -
03/01:30am 15.3 WSW 9 18 1015.0 - 0.0 - Partly cloudy - - - - -
03/01:00am 15.3 WSW 9 15 1015.0 - 0.0 - - - - - - -
03/12:30am 15.4 W 9 16 1015.3 - 0.0 - Partly cloudy - - - - -
03/12:00am 15.3 W 11 17 1015.4 - 0.0 - Mostly clear - - - - -
 
Date/Time
EDT
Temp

°C
Wind Pressure Rain
since 9am
mm
Weather Cloud Vis
km
Sea
Height
m
Swell
Dir
 
Speed
knots
Gust
knots
hPa Trend Height
m
Period
s
Dir
02/11:30pm 15.4 W 10 15 1015.6 - 0.0 - Partly cloudy - - - - -
02/11:00pm 15.5 W 13 17 1015.8 - 0.0 - Partly cloudy - - - - -
02/10:30pm 14.7 WNW 10 13 1016.0 - 0.0 - Partly cloudy - - - - -
02/10:00pm 14.7 WNW 9 12 1016.2 - 0.0 - Partly cloudy - - - - -
02/09:30pm 14.5 NW 8 11 1016.0 - 0.0 - Partly cloudy - - - - -
02/09:00pm 14.6 WNW 10 14 1015.9 - 0.0 - Cloudy - - - - -
02/08:30pm 14.5 WNW 9 11 1015.3 - 0.0 - - - - - - -
02/08:00pm 14.5 WNW 9 12 1015.2 - 0.0 - Partly cloudy - - - - -
02/07:30pm 14.6 WNW 8 10 1015.1 - 0.0 - Partly cloudy - - - - -
02/07:00pm 14.7 WNW 10 13 1015.1 - 0.0 - Partly cloudy - - - - -
02/06:30pm 14.7 NW 8 11 1014.8 - 0.0 - - - - - - -
02/06:00pm 14.8 NW 6 9 1014.8 - 0.0 - Cloudy - - - - -
02/05:30pm 14.7 W 8 11 1014.4 - 0.0 - - - - - - -
02/05:00pm 14.7 WNW 7 10 1014.8 - 0.0 - Partly cloudy - - - - -
02/04:30pm 15.3 WNW 7 11 1014.9 - 0.0 - Partly cloudy - - - - -
02/04:00pm 16.0 NW 9 11 1015.4 - 0.0 - - - - - - -
02/03:30pm 15.7 NW 6 9 1015.2 - 0.0 - - - - - - -
02/03:00pm 16.5 NNW 8 11 1015.9 - 0.0 - Mostly clear - - - - -
02/02:30pm 17.0 NW 7 10 1016.5 - 0.0 - Partly cloudy - - - - -
02/02:00pm 16.3 NW 7 10 1016.3 - 0.0 - - - - - - -
02/01:30pm 16.2 W 7 9 1016.4 - 0.0 - - - - - - -
02/01:00pm 16.4 WSW 6 10 1017.1 - 0.0 - Partly cloudy - - - - -
02/12:30pm 15.7 WNW 7 10 1017.6 - 0.0 - Partly cloudy - - - - -
02/12:00pm 15.7 WNW 5 8 1017.7 - 0.0 - Partly cloudy - - - - -
02/11:30am 14.4 WSW 5 7 1017.9 - 0.0 - - - - - - -
02/11:00am 14.1 SW 5 6 1018.4 - 0.0 - - - - - - -
02/10:30am 13.8 SW 3 5 1018.7 - 0.0 - - - - - - -
02/10:00am 13.5 WSW 5 8 1018.7 - 0.0 - - - - - - -
02/09:30am 13.3 SW 7 9 1018.3 - 0.0 - - - - - - -
02/09:00am 13.5 SSE 6 7 1018.1 - 0.0 - - - - - - -
02/08:30am 12.6 SSE 5 6 1018.1 - 0.0 - - - - - - -
02/08:00am 11.4 SSE 5 6 1017.9 - 0.0 - - - - - - -
02/07:30am 10.1 SSE 6 8 1017.6 - 0.0 - - - - - - -
02/07:00am 9.7 SSE 6 8 1017.5 - 0.0 - - - - - - -
02/06:30am 10.4 S 7 9 1017.4 - 0.0 - - - - - - -
02/06:00am 10.1 SSE 7 9 1017.4 - 0.0 - - - - - - -
02/05:30am 9.9 SSE 7 11 1017.3 - 0.0 - - - - - - -
02/05:00am 10.0 SSE 7 10 1017.3 - 0.0 - Partly cloudy - - - - -
02/04:30am 10.4 SSE 7 9 1017.7 - 0.0 - Partly cloudy - - - - -
02/04:00am 10.2 SSE 7 10 1017.8 - 0.0 - Partly cloudy - - - - -
02/03:30am 10.8 SSE 6 9 1018.0 - 0.0 - Partly cloudy - - - - -
02/03:00am 10.9 S 7 10 1017.9 - 0.0 - Partly cloudy - - - - -
02/02:30am 11.3 S 7 9 1018.0 - 0.0 - Partly cloudy - - - - -
02/02:00am 11.7 S 9 12 1017.9 - 0.0 - - - - - - -
02/01:30am 11.1 S 9 13 1017.8 - 0.0 - - - - - - -
02/01:00am 10.6 SSE 8 9 1017.6 - 0.0 - - - - - - -
02/12:30am 11.0 SSE 9 11 1017.5 - 0.0 - - - - - - -
02/12:00am 11.4 S 9 11 1017.8 - 0.0 - - - - - - -
 
Date/Time
EDT
Temp

°C
Wind Pressure Rain
since 9am
mm
Weather Cloud Vis
km
Sea
Height
m
Swell
Dir
 
Speed
knots
Gust
knots
hPa Trend Height
m
Period
s
Dir
01/11:30pm 11.5 S 9 14 1017.9 - 0.0 - - - - - - -
01/11:00pm 11.4 S 9 12 1018.3 - 0.0 - - - - - - -
01/10:30pm 11.6 SSE 9 13 1018.3 - 0.0 - Partly cloudy - - - - -
01/10:00pm 12.1 S 11 15 1018.3 - 0.0 - Partly cloudy - - - - -
01/09:30pm 12.4 S 10 15 1018.3 - 0.0 - Partly cloudy - - - - -
01/09:00pm 13.0 S 12 16 1017.7 - 0.0 - Mostly cloudy - - - - -
01/08:30pm 13.0 S 13 19 1017.1 - 0.0 - Partly cloudy - - - - -
01/08:00pm 13.5 SSW 15 22 1016.9 - 0.0 - Partly cloudy - - - - -
01/07:30pm 13.9 SSW 15 21 1016.7 - 0.0 - Partly cloudy - - - - -
01/07:00pm 14.5 SSW 18 24 1016.4 - 0.0 - Partly cloudy - - - - -
01/06:30pm 14.2 SSW 18 23 1015.9 - 0.0 - Partly cloudy - - - - -
01/06:00pm 14.8 SSW 17 25 1015.5 - 0.0 - Partly cloudy - - - - -
01/05:30pm 15.3 SSW 20 25 1015.3 - 0.0 - Partly cloudy - - - - -
01/05:00pm 15.4 SSW 20 27 1015.1 - 0.0 - Partly cloudy - - - - -
01/04:30pm 14.9 SSW 18 26 1015.1 - 0.0 - Partly cloudy - - - - -
01/04:08pm 14.8 SW 21 31 1015.0 - 0.0 - Partly cloudy - - - - -
01/04:00pm 15.6 SW 25 31 1014.9 - 0.0 - Partly cloudy - - - - -
01/03:30pm 16.2 SW 24 30 1014.7 - 0.0 - Partly cloudy - - - - -
01/03:09pm 15.9 SSW 20 30 1014.5 - 0.0 - Partly cloudy - - - - -
01/03:00pm 15.1 SW 22 30 1014.4 - 0.0 - Mostly cloudy - - - - -
01/02:36pm 15.4 SW 21 32 1014.0 - 0.0 - Partly cloudy - - - - -
01/02:30pm 16.0 SSW 20 26 1014.0 - 0.0 - Partly cloudy - - - - -
01/02:00pm 15.7 SW 21 30 1013.7 - 0.0 - Partly cloudy - - - - -
01/01:40pm 15.4 SW 21 31 1013.5 - 0.0 - Partly cloudy - - - - -
01/01:30pm 15.4 SW 22 30 1013.4 - 0.0 - Partly cloudy - - - - -
01/01:27pm 15.6 SW 23 33 1013.3 - 0.0 - Partly cloudy - - - - -
01/01:00pm 16.4 SW 27 32 1013.1 - 0.0 - Partly cloudy - - - - -
01/12:30pm 16.1 SW 28 33 1013.0 - 0.0 - Partly cloudy - - - - -
01/12:00pm 16.0 SW 29 34 1012.5 - 0.0 - Mostly clear - - - - -
01/11:40am 16.3 SW 28 38 1012.3 - 0.0 - Partly cloudy - - - - -
01/11:30am 16.1 SW 27 33 1012.1 - 0.0 - Partly cloudy - - - - -
01/11:00am 15.9 SW 28 33 1011.6 - 0.0 - Partly cloudy - - - - -
01/10:30am 15.5 SW 25 32 1011.1 - 0.0 - Partly cloudy - - - - -
01/10:07am 14.8 SW 25 35 1010.8 - 0.0 - Partly cloudy - - - - -
01/10:00am 15.5 SW 25 32 1010.6 - 0.0 - Partly cloudy - - - - -
01/09:30am 15.6 SW 27 33 1010.0 - 0.0 - Partly cloudy - - - - -
01/09:00am 15.7 SW 26 31 1009.4 - 0.8 - Partly cloudy - - - - -
01/08:30am 15.2 SW 26 32 1008.9 - 0.8 - Partly cloudy - - - - -
01/08:00am 15.0 SW 26 31 1008.4 - 0.8 - Partly cloudy - - - - -
01/07:30am 14.7 SW 25 30 1007.9 - 0.8 - Partly cloudy - - - - -

Other Formats:

Comma delimited format used in spreadsheet applications
http://www.bom.gov.au/fwo/IDT60701/IDT60701.95954.axf

JavaScript Object Notation format (JSON) in row-major order
http://www.bom.gov.au/fwo/IDT60701/IDT60701.95954.json